createdAt,value
2023-04-09T00:00:41.157Z,11.03
2023-04-09T00:03:44.433Z,10.94
2023-04-09T00:06:47.718Z,10.77
2023-04-09T00:09:50.926Z,10.86
2023-04-09T00:12:54.162Z,10.76
2023-04-09T00:15:57.390Z,10.69
2023-04-09T00:19:00.624Z,10.81
2023-04-09T00:22:03.733Z,10.84
2023-04-09T00:25:07.437Z,10.83
2023-04-09T00:28:10.621Z,10.91
2023-04-09T00:31:14.067Z,10.54
2023-04-09T00:34:17.465Z,10.20
2023-04-09T00:37:20.639Z,10.02
2023-04-09T00:40:23.887Z,9.78
2023-04-09T00:43:27.695Z,9.40
2023-04-09T00:46:33.169Z,8.82
2023-04-09T00:49:36.457Z,8.15
2023-04-09T00:52:39.731Z,7.78
2023-04-09T00:55:42.958Z,7.35
2023-04-09T00:58:46.287Z,7.02
2023-04-09T01:01:49.461Z,6.81
2023-04-09T01:04:52.812Z,6.67
2023-04-09T01:08:07.341Z,6.38
2023-04-09T01:11:47.330Z,6.33
2023-04-09T01:15:00.274Z,6.31
2023-04-09T01:18:12.321Z,6.13
2023-04-09T01:21:19.073Z,5.96
2023-04-09T01:24:43.346Z,5.94
2023-04-09T01:28:17.594Z,5.95
2023-04-09T01:31:27.214Z,6.05
2023-04-09T01:34:31.871Z,5.94
2023-04-09T01:37:36.951Z,5.75
2023-04-09T01:40:40.452Z,5.98
2023-04-09T01:43:44.801Z,6.34
2023-04-09T01:46:49.706Z,6.15
2023-04-09T01:49:52.651Z,5.88
2023-04-09T01:52:55.943Z,5.78
2023-04-09T01:56:04.269Z,5.84
2023-04-09T01:59:07.537Z,5.85
2023-04-09T02:02:20.744Z,5.98
2023-04-09T02:05:27.861Z,6.02
2023-04-09T02:08:32.144Z,6.03
2023-04-09T02:11:39.518Z,6.09
2023-04-09T02:14:43.530Z,6.29
2023-04-09T02:17:47.141Z,6.49
2023-04-09T02:20:50.381Z,6.61
2023-04-09T02:23:53.497Z,6.55
2023-04-09T02:26:56.695Z,6.32
2023-04-09T02:29:59.964Z,6.40
2023-04-09T02:33:03.232Z,6.51
2023-04-09T02:36:07.381Z,6.68
2023-04-09T02:39:10.542Z,6.65
2023-04-09T02:42:13.712Z,6.44
2023-04-09T02:45:17.143Z,6.43
2023-04-09T02:48:20.365Z,6.45
2023-04-09T02:51:23.673Z,6.53
2023-04-09T02:54:26.905Z,6.86
2023-04-09T02:57:30.565Z,7.18
2023-04-09T03:00:33.931Z,7.41
2023-04-09T03:03:39.868Z,7.43
2023-04-09T03:06:43.160Z,7.43
2023-04-09T03:09:46.564Z,7.56
2023-04-09T03:12:49.758Z,7.56
2023-04-09T03:15:56.309Z,7.67
2023-04-09T03:18:59.539Z,7.69
2023-04-09T03:22:02.773Z,7.78
2023-04-09T03:25:07.785Z,7.94
2023-04-09T03:28:11.917Z,8.04
2023-04-09T03:31:21.933Z,8.09
2023-04-09T03:34:25.303Z,8.13
2023-04-09T03:37:31.961Z,8.18
2023-04-09T03:40:37.164Z,8.07
2023-04-09T03:43:40.761Z,8.08
2023-04-09T03:46:44.895Z,8.24
2023-04-09T03:49:51.715Z,8.51
2023-04-09T03:53:00.389Z,8.87
2023-04-09T03:56:04.538Z,8.94
2023-04-09T03:59:08.592Z,9.00
2023-04-09T04:02:16.135Z,9.01
2023-04-09T04:05:26.590Z,8.90
2023-04-09T04:08:33.453Z,8.83
2023-04-09T04:11:36.910Z,8.83
2023-04-09T04:14:40.174Z,8.82
2023-04-09T04:17:54.370Z,8.94
2023-04-09T04:21:17.055Z,9.21
2023-04-09T04:24:26.491Z,9.42
2023-04-09T04:27:30.108Z,9.52
2023-04-09T04:30:36.688Z,9.58
2023-04-09T04:33:44.124Z,9.59
2023-04-09T04:36:50.514Z,9.55
2023-04-09T04:39:55.006Z,9.63
2023-04-09T04:42:58.540Z,9.56
2023-04-09T04:46:05.207Z,9.50
2023-04-09T04:49:09.464Z,9.55
2023-04-09T04:52:20.109Z,9.77
2023-04-09T04:55:27.263Z,9.81
2023-04-09T04:58:31.517Z,9.75
2023-04-09T05:01:37.655Z,9.77
2023-04-09T05:04:45.110Z,9.84
2023-04-09T05:07:51.413Z,9.97
2023-04-09T05:10:56.783Z,9.98
2023-04-09T05:14:07.492Z,10.04
2023-04-09T05:17:10.828Z,10.37
2023-04-09T05:20:22.049Z,10.35
2023-04-09T05:23:38.449Z,10.23
2023-04-09T05:26:42.220Z,10.21
2023-04-09T05:29:45.364Z,10.29
2023-04-09T05:32:48.799Z,10.36
2023-04-09T05:35:53.163Z,10.23
2023-04-09T05:38:56.540Z,10.10
2023-04-09T05:41:59.760Z,10.13
2023-04-09T05:45:10.810Z,10.43
2023-04-09T05:48:21.772Z,10.75
2023-04-09T05:51:26.912Z,11.00
2023-04-09T05:54:33.132Z,10.91
2023-04-09T05:57:37.605Z,10.74
2023-04-09T06:00:40.863Z,10.39
2023-04-09T06:03:45.465Z,10.41
2023-04-09T06:06:48.839Z,10.37
2023-04-09T06:09:52.203Z,10.32
2023-04-09T06:12:55.471Z,10.29
2023-04-09T06:15:58.742Z,10.28
2023-04-09T06:19:01.973Z,10.29
2023-04-09T06:22:05.311Z,10.24
2023-04-09T06:25:08.863Z,10.00
2023-04-09T06:28:15.161Z,9.92
2023-04-09T06:31:18.457Z,9.76
2023-04-09T06:34:27.705Z,9.65
2023-04-09T06:37:30.987Z,9.58
2023-04-09T06:40:34.121Z,9.48
2023-04-09T06:43:38.194Z,9.45
2023-04-09T06:46:41.680Z,9.46
2023-04-09T06:49:45.078Z,9.51
2023-04-09T06:52:48.540Z,9.59
2023-04-09T06:55:52.045Z,9.58
2023-04-09T06:58:55.316Z,9.47
2023-04-09T07:01:58.892Z,9.50
2023-04-09T07:05:05.505Z,9.53
2023-04-09T07:08:08.727Z,9.51
2023-04-09T07:11:12.226Z,9.52
2023-04-09T07:14:15.345Z,9.57
2023-04-09T07:17:18.510Z,9.61
2023-04-09T07:20:21.985Z,9.68
2023-04-09T07:23:25.291Z,9.65
2023-04-09T07:26:29.965Z,9.59
2023-04-09T07:29:33.221Z,9.54
2023-04-09T07:32:36.581Z,9.60
2023-04-09T07:35:40.029Z,9.58
2023-04-09T07:38:43.292Z,9.54
2023-04-09T07:41:47.968Z,9.59
2023-04-09T07:44:51.292Z,9.57
2023-04-09T07:47:57.314Z,9.42
2023-04-09T07:51:01.092Z,9.26
2023-04-09T07:54:04.396Z,9.08
2023-04-09T07:57:08.181Z,8.92
2023-04-09T08:00:11.979Z,8.83
2023-04-09T08:03:20.260Z,8.82
2023-04-09T08:06:23.818Z,8.73
2023-04-09T08:09:27.027Z,8.61
2023-04-09T08:12:30.351Z,8.50
2023-04-09T08:15:33.907Z,8.49
2023-04-09T08:18:37.137Z,8.38
2023-04-09T08:21:45.130Z,8.21
2023-04-09T08:24:52.797Z,8.08
2023-04-09T08:27:56.146Z,7.97
2023-04-09T08:30:59.329Z,8.00
2023-04-09T08:34:02.665Z,7.91
2023-04-09T08:37:08.770Z,7.99
2023-04-09T08:40:12.736Z,7.94
2023-04-09T08:43:17.489Z,7.90
2023-04-09T08:46:21.243Z,7.81
2023-04-09T08:49:24.753Z,7.82
2023-04-09T08:52:35.574Z,7.90
2023-04-09T08:55:39.133Z,7.90
2023-04-09T08:58:46.771Z,7.84
2023-04-09T09:01:54.985Z,7.78
2023-04-09T09:05:01.661Z,7.81
2023-04-09T09:08:05.259Z,7.81
2023-04-09T09:11:08.583Z,7.70
2023-04-09T09:14:14.381Z,7.56
2023-04-09T09:17:18.863Z,7.47
2023-04-09T09:20:22.941Z,7.39
2023-04-09T09:23:38.088Z,7.34
2023-04-09T09:26:41.767Z,7.34
2023-04-09T09:29:45.753Z,7.23
2023-04-09T09:33:05.554Z,7.11
2023-04-09T09:36:12.343Z,7.12
2023-04-09T09:39:20.781Z,7.19
2023-04-09T09:42:24.209Z,7.08
2023-04-09T09:45:27.542Z,7.00
2023-04-09T09:48:32.172Z,6.94
2023-04-09T09:51:38.192Z,6.93
2023-04-09T09:54:44.684Z,6.87
2023-04-09T09:57:51.275Z,6.81
2023-04-09T10:00:58.212Z,6.79
2023-04-09T10:04:03.528Z,6.73
2023-04-09T10:07:08.863Z,6.71
2023-04-09T10:10:12.322Z,6.68
2023-04-09T10:13:26.295Z,6.66
2023-04-09T10:16:29.915Z,6.56
2023-04-09T10:19:39.729Z,6.59
2023-04-09T10:22:47.906Z,6.59
2023-04-09T10:25:51.475Z,6.57
2023-04-09T10:29:09.238Z,6.57
2023-04-09T10:32:12.822Z,6.55
2023-04-09T10:35:30.001Z,6.49
2023-04-09T10:38:39.232Z,6.41
2023-04-09T10:41:50.435Z,6.36
2023-04-09T10:45:11.206Z,6.37
2023-04-09T10:48:14.936Z,6.32
2023-04-09T10:51:21.300Z,6.29
2023-04-09T10:54:38.112Z,6.35
2023-04-09T10:57:44.397Z,6.22
2023-04-09T11:00:49.951Z,6.11
2023-04-09T11:04:17.526Z,6.09
2023-04-09T11:07:22.989Z,6.10
2023-04-09T11:10:26.492Z,6.02
2023-04-09T11:13:31.101Z,5.98
2023-04-09T11:16:34.568Z,5.93
2023-04-09T11:19:37.956Z,5.93
2023-04-09T11:22:41.211Z,5.88
2023-04-09T11:25:49.673Z,5.88
2023-04-09T11:29:01.164Z,5.86
2023-04-09T11:32:05.963Z,5.84
2023-04-09T11:35:17.519Z,5.71
2023-04-09T11:38:20.950Z,5.58
2023-04-09T11:41:37.741Z,5.50
2023-04-09T11:44:41.751Z,5.46
2023-04-09T11:47:46.486Z,5.47
2023-04-09T11:50:49.912Z,5.35
2023-04-09T11:53:53.114Z,5.34
2023-04-09T11:56:56.856Z,5.34
2023-04-09T12:00:01.222Z,5.26
2023-04-09T12:03:08.906Z,5.23
2023-04-09T12:06:12.197Z,5.24
2023-04-09T12:09:16.838Z,5.21
2023-04-09T12:12:21.616Z,5.18
2023-04-09T12:15:26.208Z,5.20
2023-04-09T12:18:29.719Z,5.18
2023-04-09T12:21:56.620Z,5.11
2023-04-09T12:24:59.918Z,5.11
2023-04-09T12:28:04.112Z,5.18
2023-04-09T12:31:12.098Z,5.12
2023-04-09T12:34:15.566Z,5.03
2023-04-09T12:37:18.742Z,4.99
2023-04-09T12:40:23.287Z,5.04
2023-04-09T12:43:27.249Z,5.07
2023-04-09T12:46:33.010Z,5.03
2023-04-09T12:49:36.794Z,4.91
2023-04-09T12:52:40.499Z,4.89
2023-04-09T12:55:46.868Z,4.83
2023-04-09T12:58:50.293Z,4.81
2023-04-09T13:01:56.998Z,4.87
2023-04-09T13:05:00.807Z,4.81
2023-04-09T13:08:04.210Z,4.83
2023-04-09T13:11:07.953Z,4.80
2023-04-09T13:14:15.012Z,4.84
2023-04-09T13:17:18.901Z,4.89
2023-04-09T13:20:22.227Z,4.89
2023-04-09T13:23:25.573Z,4.82
2023-04-09T13:26:28.911Z,4.81
2023-04-09T13:29:33.270Z,4.76
2023-04-09T13:32:37.227Z,4.76
2023-04-09T13:35:40.420Z,4.75
2023-04-09T13:38:43.681Z,4.67
2023-04-09T13:41:47.311Z,4.59
2023-04-09T13:44:50.599Z,4.54
2023-04-09T13:47:54.553Z,4.51
2023-04-09T13:50:58.396Z,4.48
2023-04-09T13:54:02.793Z,4.47
2023-04-09T13:57:07.875Z,4.47
2023-04-09T14:00:12.160Z,4.42
2023-04-09T14:03:15.673Z,4.39
2023-04-09T14:06:18.931Z,4.36
2023-04-09T14:09:22.253Z,4.37
2023-04-09T14:12:25.521Z,4.35
2023-04-09T14:15:28.764Z,4.27
2023-04-09T14:18:32.021Z,4.21
2023-04-09T14:21:35.251Z,4.16
2023-04-09T14:24:40.542Z,4.14
2023-04-09T14:27:43.871Z,4.11
2023-04-09T14:30:47.190Z,4.03
2023-04-09T14:33:50.380Z,3.93
2023-04-09T14:36:53.777Z,3.80
2023-04-09T14:39:56.939Z,3.74
2023-04-09T14:43:01.758Z,3.76
2023-04-09T14:46:07.025Z,3.72
2023-04-09T14:49:10.651Z,3.68
2023-04-09T14:52:13.901Z,3.59
2023-04-09T14:55:17.093Z,3.59
2023-04-09T14:58:20.368Z,3.63
2023-04-09T15:01:23.560Z,3.71
2023-04-09T15:04:27.186Z,3.74
2023-04-09T15:07:30.594Z,3.76
2023-04-09T15:10:33.871Z,3.72
2023-04-09T15:13:37.116Z,3.73
2023-04-09T15:16:40.506Z,3.75
2023-04-09T15:19:43.688Z,3.79
2023-04-09T15:22:47.006Z,3.86
2023-04-09T15:25:50.192Z,3.91
2023-04-09T15:28:54.383Z,3.85
2023-04-09T15:31:57.839Z,3.80
2023-04-09T15:35:01.592Z,3.75
2023-04-09T15:38:05.292Z,3.64
2023-04-09T15:41:08.917Z,3.64
2023-04-09T15:44:12.245Z,3.64
2023-04-09T15:47:15.681Z,3.59
2023-04-09T15:50:18.909Z,3.51
2023-04-09T15:53:24.518Z,3.39
2023-04-09T15:56:27.744Z,3.39
2023-04-09T15:59:30.953Z,3.50
2023-04-09T16:02:34.280Z,3.51
2023-04-09T16:05:37.460Z,3.40
2023-04-09T16:08:40.908Z,3.36
2023-04-09T16:11:44.156Z,3.33
2023-04-09T16:14:47.398Z,3.38
2023-04-09T16:17:50.685Z,3.40
2023-04-09T16:20:57.313Z,3.49
2023-04-09T16:24:02.035Z,3.56
2023-04-09T16:27:05.449Z,3.56
2023-04-09T16:30:09.003Z,3.56
2023-04-09T16:33:12.309Z,3.58
2023-04-09T16:36:15.527Z,3.57
2023-04-09T16:39:20.256Z,3.61
2023-04-09T16:42:23.515Z,3.61
2023-04-09T16:45:26.901Z,3.64
2023-04-09T16:48:30.159Z,3.65
2023-04-09T16:51:33.432Z,3.70
2023-04-09T16:54:36.592Z,3.71
2023-04-09T16:57:42.192Z,3.70
2023-04-09T17:00:47.398Z,3.62
2023-04-09T17:03:51.882Z,3.48
2023-04-09T17:06:55.252Z,3.39
2023-04-09T17:09:58.554Z,3.22
2023-04-09T17:13:01.996Z,3.19
2023-04-09T17:16:05.471Z,3.18
2023-04-09T17:19:09.580Z,3.08
2023-04-09T17:22:14.605Z,3.06
2023-04-09T17:25:18.488Z,3.02
2023-04-09T17:28:21.898Z,3.04
2023-04-09T17:31:25.427Z,3.02
2023-04-09T17:34:28.927Z,3.00
2023-04-09T17:37:32.431Z,3.01
2023-04-09T17:40:35.590Z,3.13
2023-04-09T17:43:41.474Z,3.19
2023-04-09T17:46:44.941Z,3.24
2023-04-09T17:49:48.195Z,3.30
2023-04-09T17:52:51.379Z,3.28
2023-04-09T17:55:54.531Z,3.30
2023-04-09T17:58:57.827Z,3.35
2023-04-09T18:02:01.680Z,3.45
2023-04-09T18:05:05.546Z,3.50
2023-04-09T18:08:09.016Z,3.57
2023-04-09T18:11:13.583Z,3.62
2023-04-09T18:14:16.896Z,3.66
2023-04-09T18:17:20.152Z,3.69
2023-04-09T18:20:23.339Z,3.72
2023-04-09T18:23:27.653Z,3.76
2023-04-09T18:26:31.504Z,3.83
2023-04-09T18:29:34.783Z,3.81
2023-04-09T18:32:38.319Z,3.70
2023-04-09T18:35:41.505Z,3.51
2023-04-09T18:38:44.658Z,3.37
2023-04-09T18:41:48.002Z,3.27
2023-04-09T18:44:51.465Z,3.20
2023-04-09T18:47:54.850Z,3.25
2023-04-09T18:51:01.114Z,3.24
2023-04-09T18:54:04.410Z,3.28
2023-04-09T18:57:08.105Z,3.38
2023-04-09T19:00:12.035Z,3.46
2023-04-09T19:03:20.041Z,3.47
2023-04-09T19:06:24.026Z,3.42
2023-04-09T19:09:27.731Z,3.43
2023-04-09T19:12:31.103Z,3.49
2023-04-09T19:15:34.306Z,3.56
2023-04-09T19:18:38.325Z,3.64
2023-04-09T19:21:41.871Z,3.71
2023-04-09T19:24:45.563Z,3.70
2023-04-09T19:27:48.792Z,3.69
2023-04-09T19:30:53.194Z,3.69
2023-04-09T19:33:56.542Z,3.61
2023-04-09T19:36:59.608Z,3.54
2023-04-09T19:40:05.085Z,3.53
2023-04-09T19:43:08.446Z,3.51
2023-04-09T19:46:11.580Z,3.52
2023-04-09T19:49:15.885Z,3.52
2023-04-09T19:52:19.132Z,3.50
2023-04-09T19:55:25.678Z,3.54
2023-04-09T19:58:28.872Z,3.56
2023-04-09T20:01:32.209Z,3.56
2023-04-09T20:04:35.451Z,3.53
2023-04-09T20:07:39.086Z,3.52
2023-04-09T20:10:43.489Z,3.49
2023-04-09T20:13:48.306Z,3.47
2023-04-09T20:16:51.610Z,3.45
2023-04-09T20:19:56.351Z,3.43
2023-04-09T20:22:59.689Z,3.41
2023-04-09T20:26:03.452Z,3.40
2023-04-09T20:29:06.999Z,3.39
2023-04-09T20:32:10.348Z,3.38
2023-04-09T20:35:14.937Z,3.33
2023-04-09T20:38:21.087Z,3.33
2023-04-09T20:41:24.518Z,3.32
2023-04-09T20:44:28.866Z,3.26
2023-04-09T20:47:32.280Z,3.19
2023-04-09T20:50:35.482Z,3.11
2023-04-09T20:53:39.418Z,3.08
2023-04-09T20:56:42.583Z,2.98
2023-04-09T20:59:45.985Z,2.92
2023-04-09T21:02:49.257Z,2.90
2023-04-09T21:05:52.966Z,2.90
2023-04-09T21:08:57.426Z,2.86
2023-04-09T21:12:05.261Z,2.85
2023-04-09T21:15:09.025Z,2.83
2023-04-09T21:18:12.249Z,2.83
2023-04-09T21:21:15.514Z,2.82
2023-04-09T21:24:19.047Z,2.79
2023-04-09T21:27:22.280Z,2.73
2023-04-09T21:30:25.473Z,2.71
2023-04-09T21:33:30.042Z,2.67
2023-04-09T21:36:38.159Z,2.64
2023-04-09T21:39:41.365Z,2.59
2023-04-09T21:42:44.541Z,2.53
2023-04-09T21:45:47.852Z,2.49
2023-04-09T21:48:51.243Z,2.38
2023-04-09T21:51:56.354Z,2.30
2023-04-09T21:54:59.175Z,2.24
2023-04-09T21:58:02.391Z,2.14
2023-04-09T22:01:07.432Z,2.09
2023-04-09T22:04:14.292Z,2.05
2023-04-09T22:07:17.530Z,2.03
2023-04-09T22:10:21.211Z,2.02
2023-04-09T22:13:24.371Z,1.99
2023-04-09T22:16:27.809Z,1.96
2023-04-09T22:19:32.224Z,1.97
2023-04-09T22:22:35.355Z,1.90
2023-04-09T22:25:38.492Z,1.87
2023-04-09T22:28:41.634Z,1.79
2023-04-09T22:31:45.202Z,1.75
2023-04-09T22:34:48.388Z,1.73
2023-04-09T22:37:51.615Z,1.62
2023-04-09T22:40:55.261Z,1.52
2023-04-09T22:43:59.063Z,1.50
2023-04-09T22:47:02.194Z,1.45
2023-04-09T22:50:06.994Z,1.45
2023-04-09T22:53:10.193Z,1.46
2023-04-09T22:56:14.019Z,1.48
2023-04-09T22:59:17.485Z,1.48
2023-04-09T23:02:20.900Z,1.49
2023-04-09T23:05:24.249Z,1.54
2023-04-09T23:08:27.913Z,1.59
2023-04-09T23:11:31.321Z,1.64
2023-04-09T23:14:34.880Z,1.66
2023-04-09T23:17:38.681Z,1.68
2023-04-09T23:20:41.865Z,1.70
2023-04-09T23:23:45.135Z,1.77
2023-04-09T23:26:48.681Z,1.80
2023-04-09T23:29:51.899Z,1.82
2023-04-09T23:32:57.469Z,1.85
2023-04-09T23:36:01.349Z,1.87
2023-04-09T23:39:04.864Z,1.91
2023-04-09T23:42:08.098Z,1.94
2023-04-09T23:45:12.372Z,1.99
2023-04-09T23:48:15.758Z,2.02
2023-04-09T23:51:20.086Z,2.06
2023-04-09T23:54:24.052Z,2.14
2023-04-09T23:57:28.510Z,2.23
